• Join FlightAware (Why Join?)
  • Login
  • US Flag 
06:55PM EDT


 

Airport Tracker/Info


-or-


 

Live Flight TrackerFlight Track Log ✈ AWI4084 ✈ 02-Jun-2013 ✈ KDCA - KSYR

Flight Track Log - Related Links

Times and Time Zones

All times are in EDT time to prevent confusion due to time zone crossing. See the AWI4084 flight status page for this flight to view local times or setup timezone preferences in your user account.

Time Position Orientation Groundspeed Altitude Reporting Facility
EDT Latitude Longitude Course Direction KTS MPH feet Rate Location/Type
03:28PM 38.7833 -77.0333 346° North 192 221 2,800  Level Potomac TRACON
03:29PM 39.0932 -77.1651 336° Northwest  Level FlightAware Approximate
03:29PM 38.7333 -77.0667 207° Southwest 263 303 4,300  Level Potomac TRACON
03:30PM 39.1763 -77.2126 336° Northwest  Level FlightAware Approximate
03:30PM 38.7833 -77.1333 314° West 272 313 7,100  Level Potomac TRACON
03:30PM 38.8053 -77.1581 319° Northwest 275 316 7,600 2,100 Climbing Washington Center
03:31PM 39.2623 -77.2494 337° Northwest  Level FlightAware Approximate
03:31PM 38.8669 -77.2128 325° Northwest 286 329 10,000  Level Washington Center
03:32PM 39.3459 -77.2958 337° Northwest  Level FlightAware Approximate
03:32PM 38.9167 -77.2667 320° Northwest 302 348 11,000  Level Potomac TRACON
03:33PM 39.4319 -77.3328 346° North  Level FlightAware Approximate
03:33PM 38.9833 -77.3333 322° Northwest 337 388 12,600  Level Potomac TRACON
03:34PM 39.0667 -77.4000 328° Northwest 361 415 14,200 1,500 Climbing Potomac TRACON
03:35PM 39.1833 -77.4167 354° North 370 426 15,800 1,500 Climbing Potomac TRACON
03:37PM 39.3714 -77.4186 360° North 381 438 18,700 1,260 Climbing New York Center
03:38PM 39.4725 -77.4011 North 381 438 19,500 1,140 Climbing New York Center
03:39PM 39.5717 -77.3833 North 370 426 21,000 1,080 Climbing New York Center
03:40PM 39.6725 -77.3686 North 362 417 21,700 780 Climbing New York Center
03:41PM 39.7736 -77.3511 North 362 417 22,600 660 Climbing New York Center
03:42PM 39.8758 -77.3497 North 362 417 23,100 420 Climbing New York Center
03:43PM 39.9822 -77.3111 16° North 376 433 23,500 480 Climbing New York Center
03:44PM 40.0931 -77.2700 16° North 388 447 24,100 540 Climbing New York Center
03:45PM 40.1931 -77.2331 16° North 400 460 24,600 420 Climbing New York Center
03:46PM 40.3058 -77.1892 17° North 411 473 25,000 180 Climbing New York Center
03:47PM 40.4228 -77.1481 15° North 417 480 25,000  Level New York Center
03:48PM 40.5417 -77.1044 16° North 428 493 25,000  Level New York Center
03:49PM 40.6589 -77.0606 16° North 433 498 25,000  Level New York Center
03:50PM 40.7778 -77.0167 16° North 433 498 25,000  Level New York Center
03:51PM 40.8969 -76.9725 16° North 433 498 25,000 -420 Level New York Center
03:52PM 41.0161 -76.9258 16° North 433 498 24,200 -960 Descending New York Center
03:53PM 41.1328 -76.8814 16° North 438 504 23,200 -660 Descending New York Center
03:54PM 41.2497 -76.8394 15° North 438 504 23,000 -120 Descending New York Center
03:55PM 41.3728 -76.7925 16° North 426 490 23,000  Level New York Center
03:56PM 41.4811 -76.7522 16° North 412 474 23,000  Level New York Center
03:57PM 41.5875 -76.7089 17° North 407 468 23,000  Level New York Center
03:58PM 41.6978 -76.6689 15° North 407 468 23,000 -360 Level New York Center
03:59PM 41.8042 -76.6253 17° North 407 468 22,300 -1,140 Descending New York Center
04:00PM 41.9200 -76.5967 10° North 407 468 20,800 -1,560 Descending New York Center
04:01PM 42.0394 -76.5819 North 418 481 19,200 -1,620 Descending New York Center
04:02PM 42.1564 -76.5753 North 423 487 17,600 -1,320 Descending New York Center
04:03PM 42.2647 -76.5736 North 415 478 16,700 -1,440 Descending New York Center
04:04PM 42.4067 -76.5683 North 346 398 14,200 -1,740 Descending Boston Center
04:05PM 42.5056 -76.5383 13° North 361 415 12,500 -1,620 Descending Boston Center
04:06PM 42.6025 -76.5167 North 349 402 11,000 -780 Descending Boston Center
04:07PM 42.6947 -76.5000 North 344 396 11,000 -360 Level Boston Center
04:08PM 42.7628 -76.4056 46° Northeast 354 407 10,300 -1,140 Descending Boston Center
04:09PM 42.8264 -76.3133 47° Northeast 337 388 8,800 -1,620 Descending Boston Center
04:10PM 42.8922 -76.2181 47° Northeast 314 361 7,100 -1,620 Descending Boston Center
04:11PM 42.9533 -76.1339 45° Northeast 307 353 5,600 -1,560 Descending Boston Center
04:12PM 43.0078 -76.0606 45° Northeast 278 320 4,000 -1,620 Descending Boston Center